sensor_id;sensor_type;location;lat;lon;timestamp;P1;durP1;ratioP1;P2;durP2;ratioP2
75914;SDS011;64593;51.050;13.780;2024-01-10T07:01:11;39.30;;;15.15;;
75914;SDS011;64593;51.050;13.780;2024-01-10T07:06:34;43.35;;;16.23;;
75914;SDS011;64593;51.050;13.780;2024-01-10T07:11:35;34.33;;;14.75;;
75914;SDS011;64593;51.050;13.780;2024-01-10T07:16:37;46.95;;;16.27;;
75914;SDS011;64593;51.050;13.780;2024-01-10T07:26:45;34.78;;;14.02;;
75914;SDS011;64593;51.050;13.780;2024-01-10T07:31:47;47.55;;;15.55;;
75914;SDS011;64593;51.050;13.780;2024-01-10T07:37:09;58.15;;;20.58;;
75914;SDS011;64593;51.050;13.780;2024-01-10T07:42:12;40.45;;;17.80;;
75914;SDS011;64593;51.050;13.780;2024-01-10T07:47:14;55.05;;;23.92;;
75914;SDS011;64593;51.050;13.780;2024-01-10T07:52:16;47.13;;;17.85;;
75914;SDS011;64593;51.050;13.780;2024-01-10T07:57:18;50.00;;;19.88;;
75914;SDS011;64593;51.050;13.780;2024-01-10T08:02:20;53.17;;;18.42;;
75914;SDS011;64593;51.050;13.780;2024-01-10T08:07:22;52.05;;;18.60;;
75914;SDS011;64593;51.050;13.780;2024-01-10T08:12:25;53.22;;;19.00;;
75914;SDS011;64593;51.050;13.780;2024-01-10T08:17:27;64.45;;;21.98;;
75914;SDS011;64593;51.050;13.780;2024-01-10T08:22:30;73.70;;;28.23;;
75914;SDS011;64593;51.050;13.780;2024-01-10T08:27:32;62.72;;;24.65;;
75914;SDS011;64593;51.050;13.780;2024-01-10T08:32:37;52.42;;;20.88;;
75914;SDS011;64593;51.050;13.780;2024-01-10T08:37:39;32.70;;;9.48;;
75914;SDS011;64593;51.050;13.780;2024-01-10T08:42:44;52.97;;;20.50;;
75914;SDS011;64593;51.050;13.780;2024-01-10T08:47:46;61.45;;;27.38;;
75914;SDS011;64593;51.050;13.780;2024-01-10T08:52:47;40.28;;;14.98;;
75914;SDS011;64593;51.050;13.780;2024-01-10T08:57:49;30.08;;;13.50;;
75914;SDS011;64593;51.050;13.780;2024-01-10T09:02:51;55.15;;;24.17;;
75914;SDS011;64593;51.050;13.780;2024-01-10T09:08:13;47.00;;;16.98;;
75914;SDS011;64593;51.050;13.780;2024-01-10T09:13:17;33.95;;;13.80;;
75914;SDS011;64593;51.050;13.780;2024-01-10T09:18:19;41.30;;;16.25;;
75914;SDS011;64593;51.050;13.780;2024-01-10T09:23:21;52.50;;;24.05;;
75914;SDS011;64593;51.050;13.780;2024-01-10T09:28:23;35.33;;;12.73;;
75914;SDS011;64593;51.050;13.780;2024-01-10T09:33:25;38.47;;;15.82;;
75914;SDS011;64593;51.050;13.780;2024-01-10T09:38:27;45.13;;;19.30;;
75914;SDS011;64593;51.050;13.780;2024-01-10T09:43:29;37.47;;;16.00;;
75914;SDS011;64593;51.050;13.780;2024-01-10T09:48:32;38.30;;;15.77;;
75914;SDS011;64593;51.050;13.780;2024-01-10T09:53:35;43.25;;;16.27;;
75914;SDS011;64593;51.050;13.780;2024-01-10T09:58:38;35.30;;;15.00;;
75914;SDS011;64593;51.050;13.780;2024-01-10T10:03:43;42.00;;;16.27;;
75914;SDS011;64593;51.050;13.780;2024-01-10T10:08:47;42.20;;;17.05;;
75914;SDS011;64593;51.050;13.780;2024-01-10T10:13:49;35.55;;;14.25;;
75914;SDS011;64593;51.050;13.780;2024-01-10T10:18:51;38.55;;;15.23;;
75914;SDS011;64593;51.050;13.780;2024-01-10T10:24:00;37.38;;;16.83;;
75914;SDS011;64593;51.050;13.780;2024-01-10T10:29:02;41.97;;;17.30;;
75914;SDS011;64593;51.050;13.780;2024-01-10T10:34:23;39.65;;;18.42;;
75914;SDS011;64593;51.050;13.780;2024-01-10T10:39:25;39.42;;;16.48;;
75914;SDS011;64593;51.050;13.780;2024-01-10T10:44:27;46.63;;;16.45;;
75914;SDS011;64593;51.050;13.780;2024-01-10T10:49:31;46.70;;;19.13;;
75914;SDS011;64593;51.050;13.780;2024-01-10T10:54:33;41.10;;;15.48;;
75914;SDS011;64593;51.050;13.780;2024-01-10T10:59:54;45.38;;;18.33;;
75914;SDS011;64593;51.050;13.780;2024-01-10T11:04:57;43.85;;;17.83;;
75914;SDS011;64593;51.050;13.780;2024-01-10T11:10:00;37.67;;;16.92;;
75914;SDS011;64593;51.050;13.780;2024-01-10T11:15:09;37.15;;;16.75;;
75914;SDS011;64593;51.050;13.780;2024-01-10T11:21:08;37.80;;;16.85;;
75914;SDS011;64593;51.050;13.780;2024-01-10T11:25:58;41.33;;;17.55;;
75914;SDS011;64593;51.050;13.780;2024-01-10T11:31:00;39.60;;;17.35;;
75914;SDS011;64593;51.050;13.780;2024-01-10T11:36:11;49.22;;;18.45;;
75914;SDS011;64593;51.050;13.780;2024-01-10T11:41:19;38.47;;;16.38;;
75914;SDS011;64593;51.050;13.780;2024-01-10T11:46:23;42.50;;;16.33;;
75914;SDS011;64593;51.050;13.780;2024-01-10T11:51:25;36.60;;;16.08;;
75914;SDS011;64593;51.050;13.780;2024-01-10T11:56:37;37.28;;;16.20;;
75914;SDS011;64593;51.050;13.780;2024-01-10T12:01:40;38.63;;;16.02;;
75914;SDS011;64593;51.050;13.780;2024-01-10T12:06:43;37.70;;;16.27;;
75914;SDS011;64593;51.050;13.780;2024-01-10T12:11:46;41.45;;;17.20;;
75914;SDS011;64593;51.050;13.780;2024-01-10T12:16:52;34.90;;;14.52;;
75914;SDS011;64593;51.050;13.780;2024-01-10T12:21:54;34.92;;;15.23;;
75914;SDS011;64593;51.050;13.780;2024-01-10T12:26:56;34.13;;;16.95;;
75914;SDS011;64593;51.050;13.780;2024-01-10T12:31:58;34.15;;;14.80;;
75914;SDS011;64593;51.050;13.780;2024-01-10T12:37:01;32.10;;;14.98;;
75914;SDS011;64593;51.050;13.780;2024-01-10T12:42:03;37.22;;;15.05;;
75914;SDS011;64593;51.050;13.780;2024-01-10T12:47:05;31.90;;;14.77;;
75914;SDS011;64593;51.050;13.780;2024-01-10T12:52:07;31.77;;;13.70;;
75914;SDS011;64593;51.050;13.780;2024-01-10T12:57:12;26.65;;;13.40;;
75914;SDS011;64593;51.050;13.780;2024-01-10T13:02:14;38.35;;;14.13;;
75914;SDS011;64593;51.050;13.780;2024-01-10T13:07:16;37.53;;;13.75;;
75914;SDS011;64593;51.050;13.780;2024-01-10T13:12:36;26.25;;;12.93;;
75914;SDS011;64593;51.050;13.780;2024-01-10T13:17:38;26.20;;;11.88;;
75914;SDS011;64593;51.050;13.780;2024-01-10T13:22:41;29.48;;;11.70;;
75914;SDS011;64593;51.050;13.780;2024-01-10T13:27:44;10.75;;;5.43;;
75914;SDS011;64593;51.050;13.780;2024-01-10T13:32:47;10.55;;;4.15;;
75914;SDS011;64593;51.050;13.780;2024-01-10T13:37:49;8.80;;;3.67;;
75914;SDS011;64593;51.050;13.780;2024-01-10T13:42:53;30.75;;;9.77;;
75914;SDS011;64593;51.050;13.780;2024-01-10T13:47:55;11.15;;;4.13;;
75914;SDS011;64593;51.050;13.780;2024-01-10T13:53:15;8.20;;;4.03;;
75914;SDS011;64593;51.050;13.780;2024-01-10T13:58:37;10.60;;;3.65;;
75914;SDS011;64593;51.050;13.780;2024-01-10T14:03:39;9.05;;;3.72;;
75914;SDS011;64593;51.050;13.780;2024-01-10T14:08:41;9.43;;;4.10;;
75914;SDS011;64593;51.050;13.780;2024-01-10T14:13:45;9.45;;;3.20;;
75914;SDS011;64593;51.050;13.780;2024-01-10T14:18:47;7.93;;;3.70;;
75914;SDS011;64593;51.050;13.780;2024-01-10T14:24:08;8.95;;;3.58;;
75914;SDS011;64593;51.050;13.780;2024-01-10T14:29:10;9.63;;;4.07;;
75914;SDS011;64593;51.050;13.780;2024-01-10T14:34:12;8.02;;;3.45;;
75914;SDS011;64593;51.050;13.780;2024-01-10T14:39:16;7.78;;;3.17;;
75914;SDS011;64593;51.050;13.780;2024-01-10T14:44:19;8.55;;;3.75;;
75914;SDS011;64593;51.050;13.780;2024-01-10T14:49:21;8.75;;;3.83;;
75914;SDS011;64593;51.050;13.780;2024-01-10T14:54:23;8.55;;;3.72;;
75914;SDS011;64593;51.050;13.780;2024-01-10T14:59:25;8.63;;;3.70;;
75914;SDS011;64593;51.050;13.780;2024-01-10T15:04:36;6.90;;;3.05;;
75914;SDS011;64593;51.050;13.780;2024-01-10T15:09:44;7.80;;;3.63;;
75914;SDS011;64593;51.050;13.780;2024-01-10T15:14:46;10.20;;;4.07;;
75914;SDS011;64593;51.050;13.780;2024-01-10T15:20:07;15.27;;;4.00;;
75914;SDS011;64593;51.050;13.780;2024-01-10T15:25:09;9.20;;;3.35;;
75914;SDS011;64593;51.050;13.780;2024-01-10T15:30:31;12.10;;;3.20;;
75914;SDS011;64593;51.050;13.780;2024-01-10T15:36:00;10.77;;;3.88;;
75914;SDS011;64593;51.050;13.780;2024-01-10T15:41:22;10.20;;;4.25;;
75914;SDS011;64593;51.050;13.780;2024-01-10T15:46:42;10.48;;;4.18;;
75914;SDS011;64593;51.050;13.780;2024-01-10T15:51:44;12.90;;;4.32;;
75914;SDS011;64593;51.050;13.780;2024-01-10T15:56:46;11.75;;;4.13;;
75914;SDS011;64593;51.050;13.780;2024-01-10T16:01:48;8.57;;;4.40;;
75914;SDS011;64593;51.050;13.780;2024-01-10T16:06:50;9.77;;;4.18;;
75914;SDS011;64593;51.050;13.780;2024-01-10T16:11:52;11.30;;;4.47;;
75914;SDS011;64593;51.050;13.780;2024-01-10T16:16:54;10.93;;;5.13;;
75914;SDS011;64593;51.050;13.780;2024-01-10T16:21:56;11.18;;;4.22;;
75914;SDS011;64593;51.050;13.780;2024-01-10T16:26:57;11.95;;;4.50;;
75914;SDS011;64593;51.050;13.780;2024-01-10T16:32:18;13.50;;;4.80;;
75914;SDS011;64593;51.050;13.780;2024-01-10T16:37:20;14.00;;;4.80;;
75914;SDS011;64593;51.050;13.780;2024-01-10T16:42:40;10.55;;;5.03;;
75914;SDS011;64593;51.050;13.780;2024-01-10T16:48:01;12.95;;;4.80;;
75914;SDS011;64593;51.050;13.780;2024-01-10T16:53:21;13.38;;;4.32;;
75914;SDS011;64593;51.050;13.780;2024-01-10T16:58:23;16.95;;;6.32;;
75914;SDS011;64593;51.050;13.780;2024-01-10T17:03:25;13.32;;;5.55;;
75914;SDS011;64593;51.050;13.780;2024-01-10T17:08:27;13.18;;;5.00;;
75914;SDS011;64593;51.050;13.780;2024-01-10T17:13:29;11.88;;;5.60;;
75914;SDS011;64593;51.050;13.780;2024-01-10T17:18:50;12.32;;;5.35;;
75914;SDS011;64593;51.050;13.780;2024-01-10T17:23:52;13.82;;;5.90;;
75914;SDS011;64593;51.050;13.780;2024-01-10T17:28:54;16.48;;;7.30;;
75914;SDS011;64593;51.050;13.780;2024-01-10T17:33:55;18.77;;;7.40;;
75914;SDS011;64593;51.050;13.780;2024-01-10T17:38:57;16.38;;;6.65;;
75914;SDS011;64593;51.050;13.780;2024-01-10T17:44:18;11.85;;;5.03;;
75914;SDS011;64593;51.050;13.780;2024-01-10T17:49:21;17.42;;;7.28;;
75914;SDS011;64593;51.050;13.780;2024-01-10T17:54:23;15.95;;;7.10;;
75914;SDS011;64593;51.050;13.780;2024-01-10T17:59:25;21.00;;;7.72;;
75914;SDS011;64593;51.050;13.780;2024-01-10T18:04:45;21.15;;;8.55;;
75914;SDS011;64593;51.050;13.780;2024-01-10T18:09:47;29.05;;;10.68;;
75914;SDS011;64593;51.050;13.780;2024-01-10T18:14:49;25.55;;;10.60;;
75914;SDS011;64593;51.050;13.780;2024-01-10T18:19:52;20.05;;;9.70;;
75914;SDS011;64593;51.050;13.780;2024-01-10T18:24:53;24.60;;;9.70;;
75914;SDS011;64593;51.050;13.780;2024-01-10T18:29:56;22.73;;;9.15;;
75914;SDS011;64593;51.050;13.780;2024-01-10T18:34:57;28.05;;;9.50;;
75914;SDS011;64593;51.050;13.780;2024-01-10T18:39:59;25.10;;;9.00;;
75914;SDS011;64593;51.050;13.780;2024-01-10T18:45:01;24.05;;;10.02;;
75914;SDS011;64593;51.050;13.780;2024-01-10T18:50:03;20.25;;;9.13;;
75914;SDS011;64593;51.050;13.780;2024-01-10T18:55:06;21.50;;;8.85;;
75914;SDS011;64593;51.050;13.780;2024-01-10T19:00:08;19.15;;;8.98;;
75914;SDS011;64593;51.050;13.780;2024-01-10T19:05:13;26.77;;;11.02;;
75914;SDS011;64593;51.050;13.780;2024-01-10T19:10:18;25.60;;;11.07;;
75914;SDS011;64593;51.050;13.780;2024-01-10T19:15:19;22.48;;;10.95;;
75914;SDS011;64593;51.050;13.780;2024-01-10T19:20:22;27.88;;;11.50;;
75914;SDS011;64593;51.050;13.780;2024-01-10T19:25:24;30.73;;;13.10;;
75914;SDS011;64593;51.050;13.780;2024-01-10T19:30:26;30.35;;;10.20;;
75914;SDS011;64593;51.050;13.780;2024-01-10T19:35:28;32.45;;;12.70;;
75914;SDS011;64593;51.050;13.780;2024-01-10T19:40:30;29.48;;;12.35;;
75914;SDS011;64593;51.050;13.780;2024-01-10T19:45:50;27.50;;;11.95;;
75914;SDS011;64593;51.050;13.780;2024-01-10T19:50:52;31.33;;;12.20;;
75914;SDS011;64593;51.050;13.780;2024-01-10T19:56:15;33.53;;;11.10;;
75914;SDS011;64593;51.050;13.780;2024-01-10T20:01:18;33.05;;;12.25;;
75914;SDS011;64593;51.050;13.780;2024-01-10T20:06:20;31.02;;;12.00;;
75914;SDS011;64593;51.050;13.780;2024-01-10T20:11:22;35.17;;;13.93;;
75914;SDS011;64593;51.050;13.780;2024-01-10T20:16:24;31.92;;;11.73;;
75914;SDS011;64593;51.050;13.780;2024-01-10T20:21:26;33.97;;;12.68;;
75914;SDS011;64593;51.050;13.780;2024-01-10T20:26:28;33.63;;;13.32;;
75914;SDS011;64593;51.050;13.780;2024-01-10T20:31:49;37.50;;;14.00;;
75914;SDS011;64593;51.050;13.780;2024-01-10T20:37:09;35.00;;;14.40;;
75914;SDS011;64593;51.050;13.780;2024-01-10T20:42:11;35.88;;;15.32;;
75914;SDS011;64593;51.050;13.780;2024-01-10T20:47:18;35.13;;;15.20;;
75914;SDS011;64593;51.050;13.780;2024-01-10T20:52:22;40.40;;;14.18;;
75914;SDS011;64593;51.050;13.780;2024-01-10T20:57:24;33.30;;;13.45;;
75914;SDS011;64593;51.050;13.780;2024-01-10T21:02:26;39.75;;;15.27;;
75914;SDS011;64593;51.050;13.780;2024-01-10T21:07:28;40.33;;;15.27;;
75914;SDS011;64593;51.050;13.780;2024-01-10T21:12:30;30.60;;;13.40;;
75914;SDS011;64593;51.050;13.780;2024-01-10T21:17:32;36.83;;;13.68;;
75914;SDS011;64593;51.050;13.780;2024-01-10T21:22:34;37.08;;;13.20;;
75914;SDS011;64593;51.050;13.780;2024-01-10T21:27:36;38.78;;;12.57;;
75914;SDS011;64593;51.050;13.780;2024-01-10T21:32:58;35.38;;;13.32;;
75914;SDS011;64593;51.050;13.780;2024-01-10T21:38:01;37.22;;;13.50;;
75914;SDS011;64593;51.050;13.780;2024-01-10T21:43:03;36.92;;;12.63;;
75914;SDS011;64593;51.050;13.780;2024-01-10T21:48:05;30.95;;;12.43;;
75914;SDS011;64593;51.050;13.780;2024-01-10T21:53:07;35.50;;;12.45;;
75914;SDS011;64593;51.050;13.780;2024-01-10T21:58:12;29.88;;;13.43;;
75914;SDS011;64593;51.050;13.780;2024-01-10T22:03:15;33.47;;;11.95;;
75914;SDS011;64593;51.050;13.780;2024-01-10T22:08:22;32.85;;;13.13;;
75914;SDS011;64593;51.050;13.780;2024-01-10T22:13:23;36.00;;;12.15;;
75914;SDS011;64593;51.050;13.780;2024-01-10T22:18:25;33.42;;;12.38;;
75914;SDS011;64593;51.050;13.780;2024-01-10T22:23:28;33.65;;;12.65;;
75914;SDS011;64593;51.050;13.780;2024-01-10T22:28:30;30.88;;;13.10;;
75914;SDS011;64593;51.050;13.780;2024-01-10T22:33:32;31.63;;;12.07;;
75914;SDS011;64593;51.050;13.780;2024-01-10T22:38:34;32.65;;;13.23;;
75914;SDS011;64593;51.050;13.780;2024-01-10T22:43:36;38.25;;;13.80;;
75914;SDS011;64593;51.050;13.780;2024-01-10T22:48:56;29.88;;;11.85;;
75914;SDS011;64593;51.050;13.780;2024-01-10T22:53:58;40.65;;;13.38;;
75914;SDS011;64593;51.050;13.780;2024-01-10T22:59:00;33.97;;;13.13;;
